sensor_id;sensor_type;location;lat;lon;timestamp;P1;durP1;ratioP1;P2;durP2;ratioP2
23282;SDS011;11810;51.178;3.878;2023-01-29T00:01:37;62.25;;;38.53;;
23282;SDS011;11810;51.178;3.878;2023-01-29T00:04:02;74.70;;;45.55;;
23282;SDS011;11810;51.178;3.878;2023-01-29T00:06:28;68.43;;;43.92;;
23282;SDS011;11810;51.178;3.878;2023-01-29T00:08:54;69.15;;;43.50;;
23282;SDS011;11810;51.178;3.878;2023-01-29T00:11:21;73.13;;;44.58;;
23282;SDS011;11810;51.178;3.878;2023-01-29T00:13:49;66.82;;;41.03;;
23282;SDS011;11810;51.178;3.878;2023-01-29T00:16:15;64.05;;;41.28;;
23282;SDS011;11810;51.178;3.878;2023-01-29T00:18:41;67.15;;;42.67;;
23282;SDS011;11810;51.178;3.878;2023-01-29T00:21:10;62.92;;;40.72;;
23282;SDS011;11810;51.178;3.878;2023-01-29T00:23:58;70.05;;;40.67;;
23282;SDS011;11810;51.178;3.878;2023-01-29T00:26:24;62.67;;;40.15;;
23282;SDS011;11810;51.178;3.878;2023-01-29T00:28:50;64.65;;;39.95;;
23282;SDS011;11810;51.178;3.878;2023-01-29T00:31:20;64.25;;;40.90;;
23282;SDS011;11810;51.178;3.878;2023-01-29T00:33:48;65.82;;;42.33;;
23282;SDS011;11810;51.178;3.878;2023-01-29T00:36:15;69.63;;;42.72;;
23282;SDS011;11810;51.178;3.878;2023-01-29T00:38:42;75.03;;;43.30;;
23282;SDS011;11810;51.178;3.878;2023-01-29T00:41:09;79.32;;;45.08;;
23282;SDS011;11810;51.178;3.878;2023-01-29T00:43:56;79.13;;;45.08;;
23282;SDS011;11810;51.178;3.878;2023-01-29T00:46:42;78.68;;;44.42;;
23282;SDS011;11810;51.178;3.878;2023-01-29T00:49:08;70.22;;;43.00;;
23282;SDS011;11810;51.178;3.878;2023-01-29T00:51:34;70.90;;;46.47;;
23282;SDS011;11810;51.178;3.878;2023-01-29T00:54:02;76.82;;;49.25;;
23282;SDS011;11810;51.178;3.878;2023-01-29T00:56:30;76.80;;;47.80;;
23282;SDS011;11810;51.178;3.878;2023-01-29T00:58:57;81.82;;;48.08;;
23282;SDS011;11810;51.178;3.878;2023-01-29T01:03:01;75.03;;;48.13;;
23282;SDS011;11810;51.178;3.878;2023-01-29T01:05:30;80.88;;;46.10;;
23282;SDS011;11810;51.178;3.878;2023-01-29T01:09:13;75.10;;;45.80;;
23282;SDS011;11810;51.178;3.878;2023-01-29T01:11:58;77.18;;;46.35;;
23282;SDS011;11810;51.178;3.878;2023-01-29T01:14:24;70.05;;;45.22;;
23282;SDS011;11810;51.178;3.878;2023-01-29T01:16:49;72.47;;;46.65;;
23282;SDS011;11810;51.178;3.878;2023-01-29T01:19:15;70.97;;;45.28;;
23282;SDS011;11810;51.178;3.878;2023-01-29T01:21:41;72.55;;;45.95;;
23282;SDS011;11810;51.178;3.878;2023-01-29T01:24:10;74.72;;;45.67;;
23282;SDS011;11810;51.178;3.878;2023-01-29T01:26:36;73.50;;;45.70;;
23282;SDS011;11810;51.178;3.878;2023-01-29T01:29:02;75.18;;;45.70;;
23282;SDS011;11810;51.178;3.878;2023-01-29T01:31:29;74.43;;;45.13;;
23282;SDS011;11810;51.178;3.878;2023-01-29T01:33:55;73.70;;;44.50;;
23282;SDS011;11810;51.178;3.878;2023-01-29T01:36:21;73.55;;;47.13;;
23282;SDS011;11810;51.178;3.878;2023-01-29T01:38:47;74.57;;;45.75;;
23282;SDS011;11810;51.178;3.878;2023-01-29T01:41:15;77.68;;;44.88;;
23282;SDS011;11810;51.178;3.878;2023-01-29T01:46:43;78.57;;;45.15;;
23282;SDS011;11810;51.178;3.878;2023-01-29T01:49:09;74.03;;;45.55;;
23282;SDS011;11810;51.178;3.878;2023-01-29T01:51:43;75.43;;;45.47;;
23282;SDS011;11810;51.178;3.878;2023-01-29T01:54:13;73.85;;;45.90;;
23282;SDS011;11810;51.178;3.878;2023-01-29T01:56:44;80.85;;;45.97;;
23282;SDS011;11810;51.178;3.878;2023-01-29T01:59:15;80.10;;;48.35;;
23282;SDS011;11810;51.178;3.878;2023-01-29T02:01:43;76.25;;;45.45;;
23282;SDS011;11810;51.178;3.878;2023-01-29T02:04:17;76.00;;;46.47;;
23282;SDS011;11810;51.178;3.878;2023-01-29T02:07:05;76.80;;;45.70;;
23282;SDS011;11810;51.178;3.878;2023-01-29T02:09:55;72.38;;;43.78;;
23282;SDS011;11810;51.178;3.878;2023-01-29T02:14:13;76.88;;;44.47;;
23282;SDS011;11810;51.178;3.878;2023-01-29T02:18:12;85.20;;;46.30;;
23282;SDS011;11810;51.178;3.878;2023-01-29T02:20:43;76.43;;;45.85;;
23282;SDS011;11810;51.178;3.878;2023-01-29T02:24:04;78.70;;;45.00;;
23282;SDS011;11810;51.178;3.878;2023-01-29T02:30:20;78.07;;;44.55;;
23282;SDS011;11810;51.178;3.878;2023-01-29T02:35:41;80.53;;;44.53;;
23282;SDS011;11810;51.178;3.878;2023-01-29T02:52:20;71.95;;;42.33;;
23282;SDS011;11810;51.178;3.878;2023-01-29T02:55:39;71.85;;;43.00;;
23282;SDS011;11810;51.178;3.878;2023-01-29T02:57:48;75.38;;;42.40;;
23282;SDS011;11810;51.178;3.878;2023-01-29T03:00:22;74.18;;;41.88;;
23282;SDS011;11810;51.178;3.878;2023-01-29T03:02:59;71.53;;;42.63;;
23282;SDS011;11810;51.178;3.878;2023-01-29T03:05:36;75.45;;;43.95;;
23282;SDS011;11810;51.178;3.878;2023-01-29T03:08:20;67.43;;;41.25;;
23282;SDS011;11810;51.178;3.878;2023-01-29T03:13:19;71.07;;;42.80;;
23282;SDS011;11810;51.178;3.878;2023-01-29T03:15:59;69.47;;;41.88;;
23282;SDS011;11810;51.178;3.878;2023-01-29T03:18:31;74.00;;;42.33;;
23282;SDS011;11810;51.178;3.878;2023-01-29T03:21:07;73.47;;;42.30;;
23282;SDS011;11810;51.178;3.878;2023-01-29T03:23:55;70.00;;;40.78;;
23282;SDS011;11810;51.178;3.878;2023-01-29T03:26:41;68.72;;;41.25;;
23282;SDS011;11810;51.178;3.878;2023-01-29T03:29:29;68.65;;;41.38;;
23282;SDS011;11810;51.178;3.878;2023-01-29T03:34:21;63.45;;;40.22;;
23282;SDS011;11810;51.178;3.878;2023-01-29T03:37:00;69.95;;;39.85;;
23282;SDS011;11810;51.178;3.878;2023-01-29T03:39:45;68.55;;;39.97;;
23282;SDS011;11810;51.178;3.878;2023-01-29T03:42:17;65.00;;;39.65;;
23282;SDS011;11810;51.178;3.878;2023-01-29T03:50:53;68.93;;;38.55;;
23282;SDS011;11810;51.178;3.878;2023-01-29T03:53:39;66.47;;;38.95;;
23282;SDS011;11810;51.178;3.878;2023-01-29T03:58:25;64.65;;;39.55;;
23282;SDS011;11810;51.178;3.878;2023-01-29T04:01:24;66.40;;;38.88;;
23282;SDS011;11810;51.178;3.878;2023-01-29T04:04:08;62.35;;;36.22;;
23282;SDS011;11810;51.178;3.878;2023-01-29T04:06:39;59.90;;;38.03;;
23282;SDS011;11810;51.178;3.878;2023-01-29T04:09:13;63.60;;;37.50;;
23282;SDS011;11810;51.178;3.878;2023-01-29T04:11:50;66.30;;;37.90;;
23282;SDS011;11810;51.178;3.878;2023-01-29T04:14:25;67.43;;;38.50;;
23282;SDS011;11810;51.178;3.878;2023-01-29T04:18:25;63.78;;;37.70;;
23282;SDS011;11810;51.178;3.878;2023-01-29T04:21:26;63.60;;;37.42;;
23282;SDS011;11810;51.178;3.878;2023-01-29T04:23:55;67.53;;;37.67;;
23282;SDS011;11810;51.178;3.878;2023-01-29T04:41:20;65.55;;;39.08;;
23282;SDS011;11810;51.178;3.878;2023-01-29T04:44:11;64.20;;;36.95;;
23282;SDS011;11810;51.178;3.878;2023-01-29T04:46:51;64.38;;;38.10;;
23282;SDS011;11810;51.178;3.878;2023-01-29T04:54:35;62.30;;;36.28;;
23282;SDS011;11810;51.178;3.878;2023-01-29T04:57:34;46.25;;;27.45;;
23282;SDS011;11810;51.178;3.878;2023-01-29T05:00:16;59.65;;;35.72;;
23282;SDS011;11810;51.178;3.878;2023-01-29T05:02:46;61.17;;;35.58;;
23282;SDS011;11810;51.178;3.878;2023-01-29T05:05:13;66.13;;;36.58;;
23282;SDS011;11810;51.178;3.878;2023-01-29T05:07:43;60.75;;;36.20;;
23282;SDS011;11810;51.178;3.878;2023-01-29T05:13:32;63.38;;;36.60;;
23282;SDS011;11810;51.178;3.878;2023-01-29T05:16:06;66.20;;;35.45;;
23282;SDS011;11810;51.178;3.878;2023-01-29T05:19:33;59.10;;;36.47;;
23282;SDS011;11810;51.178;3.878;2023-01-29T05:21:58;58.22;;;36.17;;
23282;SDS011;11810;51.178;3.878;2023-01-29T05:24:25;61.67;;;36.10;;
23282;SDS011;11810;51.178;3.878;2023-01-29T05:26:52;60.85;;;36.22;;
23282;SDS011;11810;51.178;3.878;2023-01-29T05:29:37;58.00;;;35.05;;
23282;SDS011;11810;51.178;3.878;2023-01-29T05:32:09;56.17;;;34.67;;
23282;SDS011;11810;51.178;3.878;2023-01-29T05:34:34;55.17;;;33.67;;
23282;SDS011;11810;51.178;3.878;2023-01-29T05:37:00;59.53;;;34.78;;
23282;SDS011;11810;51.178;3.878;2023-01-29T05:39:26;58.90;;;34.35;;
23282;SDS011;11810;51.178;3.878;2023-01-29T05:41:52;57.50;;;33.58;;
23282;SDS011;11810;51.178;3.878;2023-01-29T05:44:18;58.63;;;33.55;;
23282;SDS011;11810;51.178;3.878;2023-01-29T05:46:44;57.85;;;33.90;;
23282;SDS011;11810;51.178;3.878;2023-01-29T05:49:36;53.13;;;33.05;;
23282;SDS011;11810;51.178;3.878;2023-01-29T05:52:02;61.03;;;34.30;;
23282;SDS011;11810;51.178;3.878;2023-01-29T05:54:28;59.92;;;34.10;;
23282;SDS011;11810;51.178;3.878;2023-01-29T05:56:54;56.67;;;33.85;;
23282;SDS011;11810;51.178;3.878;2023-01-29T05:59:20;57.38;;;34.47;;
23282;SDS011;11810;51.178;3.878;2023-01-29T06:01:45;56.35;;;34.22;;
23282;SDS011;11810;51.178;3.878;2023-01-29T06:04:11;57.33;;;33.85;;
23282;SDS011;11810;51.178;3.878;2023-01-29T06:06:37;58.80;;;35.05;;
23282;SDS011;11810;51.178;3.878;2023-01-29T06:09:02;56.30;;;34.45;;
23282;SDS011;11810;51.178;3.878;2023-01-29T06:11:28;60.15;;;33.88;;
23282;SDS011;11810;51.178;3.878;2023-01-29T06:13:53;56.70;;;34.00;;
23282;SDS011;11810;51.178;3.878;2023-01-29T06:16:19;55.40;;;33.03;;
23282;SDS011;11810;51.178;3.878;2023-01-29T06:20:40;55.00;;;33.15;;
23282;SDS011;11810;51.178;3.878;2023-01-29T06:23:06;59.47;;;34.55;;
23282;SDS011;11810;51.178;3.878;2023-01-29T06:25:41;53.33;;;33.10;;
23282;SDS011;11810;51.178;3.878;2023-01-29T06:28:07;52.92;;;33.25;;
23282;SDS011;11810;51.178;3.878;2023-01-29T06:30:33;55.45;;;31.55;;
23282;SDS011;11810;51.178;3.878;2023-01-29T06:32:59;56.58;;;33.03;;
23282;SDS011;11810;51.178;3.878;2023-01-29T06:35:34;56.55;;;33.67;;
23282;SDS011;11810;51.178;3.878;2023-01-29T06:37:59;55.50;;;32.55;;
23282;SDS011;11810;51.178;3.878;2023-01-29T06:40:25;60.95;;;33.72;;
23282;SDS011;11810;51.178;3.878;2023-01-29T06:42:51;59.05;;;34.50;;
23282;SDS011;11810;51.178;3.878;2023-01-29T06:45:16;52.85;;;31.80;;
23282;SDS011;11810;51.178;3.878;2023-01-29T06:47:42;58.10;;;33.78;;
23282;SDS011;11810;51.178;3.878;2023-01-29T06:50:08;52.42;;;32.08;;
23282;SDS011;11810;51.178;3.878;2023-01-29T06:52:34;56.92;;;34.13;;
23282;SDS011;11810;51.178;3.878;2023-01-29T06:55:00;59.13;;;33.92;;
23282;SDS011;11810;51.178;3.878;2023-01-29T06:57:27;57.03;;;34.10;;
23282;SDS011;11810;51.178;3.878;2023-01-29T06:59:54;57.00;;;33.70;;
23282;SDS011;11810;51.178;3.878;2023-01-29T07:03:48;55.20;;;33.63;;
23282;SDS011;11810;51.178;3.878;2023-01-29T07:06:15;52.80;;;32.60;;
23282;SDS011;11810;51.178;3.878;2023-01-29T07:08:41;58.60;;;32.90;;
23282;SDS011;11810;51.178;3.878;2023-01-29T07:12:47;53.38;;;31.33;;
23282;SDS011;11810;51.178;3.878;2023-01-29T07:15:13;53.50;;;33.13;;
23282;SDS011;11810;51.178;3.878;2023-01-29T07:17:43;52.75;;;32.20;;
23282;SDS011;11810;51.178;3.878;2023-01-29T07:20:09;56.05;;;32.60;;
23282;SDS011;11810;51.178;3.878;2023-01-29T07:22:35;55.80;;;33.22;;
23282;SDS011;11810;51.178;3.878;2023-01-29T07:25:01;52.55;;;32.70;;
23282;SDS011;11810;51.178;3.878;2023-01-29T07:27:27;54.45;;;34.10;;
23282;SDS011;11810;51.178;3.878;2023-01-29T07:29:53;56.40;;;33.63;;
23282;SDS011;11810;51.178;3.878;2023-01-29T07:32:19;58.42;;;34.05;;
23282;SDS011;11810;51.178;3.878;2023-01-29T07:34:45;52.42;;;33.38;;
23282;SDS011;11810;51.178;3.878;2023-01-29T07:37:10;56.38;;;33.97;;
23282;SDS011;11810;51.178;3.878;2023-01-29T07:39:36;56.38;;;33.67;;
23282;SDS011;11810;51.178;3.878;2023-01-29T07:42:02;52.00;;;32.08;;
23282;SDS011;11810;51.178;3.878;2023-01-29T07:44:28;55.67;;;33.50;;
23282;SDS011;11810;51.178;3.878;2023-01-29T07:48:53;53.95;;;33.75;;
23282;SDS011;11810;51.178;3.878;2023-01-29T07:51:19;53.22;;;32.50;;
23282;SDS011;11810;51.178;3.878;2023-01-29T07:54:54;59.35;;;32.38;;
23282;SDS011;11810;51.178;3.878;2023-01-29T07:57:58;56.72;;;32.53;;
23282;SDS011;11810;51.178;3.878;2023-01-29T08:00:25;55.67;;;34.72;;
23282;SDS011;11810;51.178;3.878;2023-01-29T08:02:52;55.67;;;33.53;;
23282;SDS011;11810;51.178;3.878;2023-01-29T08:05:18;55.38;;;33.33;;
23282;SDS011;11810;51.178;3.878;2023-01-29T08:07:44;55.88;;;33.10;;
23282;SDS011;11810;51.178;3.878;2023-01-29T08:12:57;50.05;;;30.67;;
23282;SDS011;11810;51.178;3.878;2023-01-29T08:15:24;51.85;;;30.73;;
23282;SDS011;11810;51.178;3.878;2023-01-29T08:17:50;56.53;;;33.25;;
23282;SDS011;11810;51.178;3.878;2023-01-29T08:20:17;60.40;;;32.10;;
23282;SDS011;11810;51.178;3.878;2023-01-29T08:22:43;55.47;;;31.27;;
23282;SDS011;11810;51.178;3.878;2023-01-29T08:25:09;56.80;;;32.22;;
23282;SDS011;11810;51.178;3.878;2023-01-29T08:27:35;52.55;;;31.77;;
23282;SDS011;11810;51.178;3.878;2023-01-29T08:31:00;54.78;;;32.65;;
23282;SDS011;11810;51.178;3.878;2023-01-29T08:35:27;54.53;;;31.58;;
23282;SDS011;11810;51.178;3.878;2023-01-29T08:38:02;52.65;;;32.40;;
23282;SDS011;11810;51.178;3.878;2023-01-29T08:40:30;58.13;;;31.60;;
23282;SDS011;11810;51.178;3.878;2023-01-29T08:42:57;55.85;;;32.28;;
23282;SDS011;11810;51.178;3.878;2023-01-29T08:47:03;50.58;;;30.00;;
23282;SDS011;11810;51.178;3.878;2023-01-29T08:49:29;48.75;;;30.10;;
23282;SDS011;11810;51.178;3.878;2023-01-29T08:51:55;52.67;;;30.52;;
23282;SDS011;11810;51.178;3.878;2023-01-29T08:54:21;48.08;;;30.70;;
23282;SDS011;11810;51.178;3.878;2023-01-29T08:56:48;50.47;;;29.95;;
23282;SDS011;11810;51.178;3.878;2023-01-29T08:59:14;51.95;;;29.95;;
23282;SDS011;11810;51.178;3.878;2023-01-29T09:03:18;52.17;;;30.25;;
23282;SDS011;11810;51.178;3.878;2023-01-29T09:06:10;52.65;;;29.30;;
23282;SDS011;11810;51.178;3.878;2023-01-29T09:08:37;46.38;;;29.10;;
23282;SDS011;11810;51.178;3.878;2023-01-29T09:11:04;46.33;;;28.77;;
23282;SDS011;11810;51.178;3.878;2023-01-29T09:13:30;49.00;;;29.55;;
23282;SDS011;11810;51.178;3.878;2023-01-29T09:17:08;51.13;;;29.02;;
23282;SDS011;11810;51.178;3.878;2023-01-29T09:19:34;49.13;;;29.23;;
23282;SDS011;11810;51.178;3.878;2023-01-29T09:22:00;51.38;;;29.15;;
23282;SDS011;11810;51.178;3.878;2023-01-29T09:24:26;49.22;;;29.10;;
23282;SDS011;11810;51.178;3.878;2023-01-29T09:26:52;45.85;;;28.90;;
23282;SDS011;11810;51.178;3.878;2023-01-29T09:30:10;46.42;;;27.83;;
23282;SDS011;11810;51.178;3.878;2023-01-29T09:32:36;47.08;;;27.85;;
23282;SDS011;11810;51.178;3.878;2023-01-29T09:35:11;46.72;;;28.27;;
23282;SDS011;11810;51.178;3.878;2023-01-29T09:37:37;49.63;;;28.10;;
23282;SDS011;11810;51.178;3.878;2023-01-29T09:40:03;48.38;;;28.15;;
23282;SDS011;11810;51.178;3.878;2023-01-29T09:42:47;43.10;;;26.27;;
23282;SDS011;11810;51.178;3.878;2023-01-29T09:45:20;45.63;;;26.58;;
23282;SDS011;11810;51.178;3.878;2023-01-29T09:47:49;43.33;;;26.58;;
23282;SDS011;11810;51.178;3.878;2023-01-29T09:53:17;42.00;;;26.50;;
23282;SDS011;11810;51.178;3.878;2023-01-29T09:56:10;46.80;;;26.35;;
23282;SDS011;11810;51.178;3.878;2023-01-29T09:58:41;48.38;;;26.88;;
23282;SDS011;11810;51.178;3.878;2023-01-29T10:01:12;42.13;;;26.02;;
23282;SDS011;11810;51.178;3.878;2023-01-29T10:12:01;38.97;;;25.40;;
23282;SDS011;11810;51.178;3.878;2023-01-29T10:14:43;41.95;;;25.00;;
23282;SDS011;11810;51.178;3.878;2023-01-29T10:17:29;40.55;;;25.98;;
23282;SDS011;11810;51.178;3.878;2023-01-29T10:23:03;41.53;;;25.70;;
23282;SDS011;11810;51.178;3.878;2023-01-29T10:25:39;42.40;;;25.83;;
23282;SDS011;11810;51.178;3.878;2023-01-29T10:30:48;45.25;;;27.73;;
23282;SDS011;11810;51.178;3.878;2023-01-29T10:33:21;45.90;;;27.23;;
23282;SDS011;11810;51.178;3.878;2023-01-29T10:35:55;44.88;;;28.20;;
23282;SDS011;11810;51.178;3.878;2023-01-29T10:38:28;43.38;;;27.52;;
23282;SDS011;11810;51.178;3.878;2023-01-29T10:41:18;40.17;;;25.25;;
23282;SDS011;11810;51.178;3.878;2023-01-29T10:50:05;39.10;;;25.73;;
23282;SDS011;11810;51.178;3.878;2023-01-29T10:58:06;39.40;;;25.00;;
23282;SDS011;11810;51.178;3.878;2023-01-29T11:00:49;37.63;;;24.02;;
23282;SDS011;11810;51.178;3.878;2023-01-29T11:03:25;35.50;;;24.98;;
23282;SDS011;11810;51.178;3.878;2023-01-29T11:06:14;39.75;;;25.13;;
23282;SDS011;11810;51.178;3.878;2023-01-29T11:13:23;37.25;;;23.42;;
23282;SDS011;11810;51.178;3.878;2023-01-29T11:15:56;37.27;;;25.03;;
23282;SDS011;11810;51.178;3.878;2023-01-29T11:18:22;35.03;;;24.30;;
23282;SDS011;11810;51.178;3.878;2023-01-29T11:20:58;37.45;;;23.92;;
23282;SDS011;11810;51.178;3.878;2023-01-29T11:25:55;34.28;;;22.83;;
23282;SDS011;11810;51.178;3.878;2023-01-29T11:28:41;36.38;;;23.40;;
23282;SDS011;11810;51.178;3.878;2023-01-29T11:31:44;35.60;;;23.77;;
23282;SDS011;11810;51.178;3.878;2023-01-29T11:34:18;32.22;;;21.70;;
23282;SDS011;11810;51.178;3.878;2023-01-29T11:36:50;36.08;;;23.15;;
23282;SDS011;11810;51.178;3.878;2023-01-29T11:39:22;37.30;;;23.10;;
23282;SDS011;11810;51.178;3.878;2023-01-29T11:41:52;38.78;;;22.80;;
23282;SDS011;11810;51.178;3.878;2023-01-29T11:45:28;37.13;;;22.08;;
23282;SDS011;11810;51.178;3.878;2023-01-29T11:47:56;31.95;;;21.30;;
23282;SDS011;11810;51.178;3.878;2023-01-29T11:50:27;32.50;;;19.92;;
23282;SDS011;11810;51.178;3.878;2023-01-29T11:52:55;35.38;;;21.35;;
23282;SDS011;11810;51.178;3.878;2023-01-29T11:55:27;33.67;;;21.92;;
23282;SDS011;11810;51.178;3.878;2023-01-29T12:00:50;31.75;;;21.02;;
23282;SDS011;11810;51.178;3.878;2023-01-29T12:06:31;36.95;;;20.15;;
23282;SDS011;11810;51.178;3.878;2023-01-29T12:09:01;29.45;;;19.50;;
23282;SDS011;11810;51.178;3.878;2023-01-29T12:11:34;33.10;;;21.77;;
23282;SDS011;11810;51.178;3.878;2023-01-29T12:14:02;32.42;;;21.40;;
23282;SDS011;11810;51.178;3.878;2023-01-29T12:16:37;30.40;;;19.38;;
23282;SDS011;11810;51.178;3.878;2023-01-29T12:22:13;29.45;;;20.08;;
23282;SDS011;11810;51.178;3.878;2023-01-29T12:24:48;28.88;;;17.90;;
23282;SDS011;11810;51.178;3.878;2023-01-29T12:38:16;32.63;;;19.88;;
23282;SDS011;11810;51.178;3.878;2023-01-29T12:43:16;31.30;;;20.38;;
23282;SDS011;11810;51.178;3.878;2023-01-29T12:45:47;28.60;;;20.27;;
23282;SDS011;11810;51.178;3.878;2023-01-29T12:48:24;30.00;;;20.65;;
23282;SDS011;11810;51.178;3.878;2023-01-29T12:50:58;29.05;;;19.60;;
23282;SDS011;11810;51.178;3.878;2023-01-29T12:53:32;28.00;;;19.13;;
23282;SDS011;11810;51.178;3.878;2023-01-29T12:56:13;30.98;;;19.95;;
23282;SDS011;11810;51.178;3.878;2023-01-29T12:58:44;31.80;;;20.08;;
23282;SDS011;11810;51.178;3.878;2023-01-29T13:01:19;32.22;;;20.17;;
23282;SDS011;11810;51.178;3.878;2023-01-29T13:04:00;30.40;;;20.15;;
23282;SDS011;11810;51.178;3.878;2023-01-29T13:07:16;31.90;;;19.77;;
23282;SDS011;11810;51.178;3.878;2023-01-29T13:09:20;32.33;;;20.65;;
23282;SDS011;11810;51.178;3.878;2023-01-29T13:12:02;28.75;;;19.23;;
23282;SDS011;11810;51.178;3.878;2023-01-29T13:14:48;28.90;;;20.38;;
23282;SDS011;11810;51.178;3.878;2023-01-29T13:18:06;30.13;;;19.58;;
23282;SDS011;11810;51.178;3.878;2023-01-29T13:20:16;34.90;;;21.23;;
23282;SDS011;11810;51.178;3.878;2023-01-29T13:22:48;32.03;;;20.08;;
23282;SDS011;11810;51.178;3.878;2023-01-29T13:25:17;28.92;;;19.58;;
23282;SDS011;11810;51.178;3.878;2023-01-29T13:27:44;32.60;;;20.80;;
23282;SDS011;11810;51.178;3.878;2023-01-29T13:32:51;33.03;;;21.08;;
23282;SDS011;11810;51.178;3.878;2023-01-29T13:35:19;30.27;;;19.13;;
23282;SDS011;11810;51.178;3.878;2023-01-29T13:37:52;30.20;;;19.92;;
23282;SDS011;11810;51.178;3.878;2023-01-29T13:40:24;34.45;;;20.48;;
23282;SDS011;11810;51.178;3.878;2023-01-29T13:42:52;33.28;;;19.60;;
23282;SDS011;11810;51.178;3.878;2023-01-29T13:46:05;34.83;;;22.02;;
23282;SDS011;11810;51.178;3.878;2023-01-29T13:48:10;29.60;;;20.05;;
23282;SDS011;11810;51.178;3.878;2023-01-29T13:50:48;31.48;;;19.35;;
23282;SDS011;11810;51.178;3.878;2023-01-29T13:53:19;30.70;;;20.02;;
23282;SDS011;11810;51.178;3.878;2023-01-29T13:55:51;32.55;;;21.88;;
23282;SDS011;11810;51.178;3.878;2023-01-29T13:59:51;33.42;;;21.30;;
23282;SDS011;11810;51.178;3.878;2023-01-29T14:02:26;33.65;;;20.30;;
23282;SDS011;11810;51.178;3.878;2023-01-29T14:10:15;33.80;;;21.30;;
23282;SDS011;11810;51.178;3.878;2023-01-29T14:12:43;33.53;;;22.00;;
23282;SDS011;11810;51.178;3.878;2023-01-29T14:15:14;37.42;;;22.08;;
23282;SDS011;11810;51.178;3.878;2023-01-29T14:18:00;32.72;;;20.90;;
23282;SDS011;11810;51.178;3.878;2023-01-29T14:20:29;33.83;;;23.02;;
23282;SDS011;11810;51.178;3.878;2023-01-29T14:24:46;36.42;;;23.05;;
23282;SDS011;11810;51.178;3.878;2023-01-29T14:27:46;39.30;;;24.27;;
23282;SDS011;11810;51.178;3.878;2023-01-29T14:30:15;38.63;;;23.40;;
23282;SDS011;11810;51.178;3.878;2023-01-29T14:32:47;34.03;;;21.70;;
23282;SDS011;11810;51.178;3.878;2023-01-29T14:37:44;33.08;;;22.15;;
23282;SDS011;11810;51.178;3.878;2023-01-29T14:40:23;35.55;;;22.73;;
23282;SDS011;11810;51.178;3.878;2023-01-29T14:46:48;37.85;;;23.10;;
23282;SDS011;11810;51.178;3.878;2023-01-29T14:49:43;33.85;;;22.88;;
23282;SDS011;11810;51.178;3.878;2023-01-29T14:52:14;33.65;;;21.73;;
23282;SDS011;11810;51.178;3.878;2023-01-29T14:54:42;37.90;;;23.35;;
23282;SDS011;11810;51.178;3.878;2023-01-29T14:57:12;40.33;;;24.13;;
23282;SDS011;11810;51.178;3.878;2023-01-29T14:59:55;35.50;;;23.20;;
23282;SDS011;11810;51.178;3.878;2023-01-29T15:02:29;36.25;;;23.83;;
23282;SDS011;11810;51.178;3.878;2023-01-29T15:05:22;35.67;;;22.40;;
23282;SDS011;11810;51.178;3.878;2023-01-29T15:19:37;40.55;;;24.95;;
23282;SDS011;11810;51.178;3.878;2023-01-29T15:22:13;37.70;;;21.08;;
23282;SDS011;11810;51.178;3.878;2023-01-29T15:24:44;39.33;;;23.45;;
23282;SDS011;11810;51.178;3.878;2023-01-29T15:27:15;39.60;;;24.08;;
23282;SDS011;11810;51.178;3.878;2023-01-29T15:29:47;39.42;;;23.95;;
23282;SDS011;11810;51.178;3.878;2023-01-29T15:32:27;43.88;;;28.38;;
23282;SDS011;11810;51.178;3.878;2023-01-29T15:35:07;37.90;;;24.17;;
23282;SDS011;11810;51.178;3.878;2023-01-29T15:37:35;42.03;;;23.65;;
23282;SDS011;11810;51.178;3.878;2023-01-29T15:40:02;41.38;;;26.05;;
23282;SDS011;11810;51.178;3.878;2023-01-29T15:42:40;37.03;;;23.73;;
23282;SDS011;11810;51.178;3.878;2023-01-29T15:45:24;37.97;;;24.00;;
23282;SDS011;11810;51.178;3.878;2023-01-29T15:47:54;37.63;;;24.42;;
23282;SDS011;11810;51.178;3.878;2023-01-29T15:50:25;40.30;;;23.92;;
23282;SDS011;11810;51.178;3.878;2023-01-29T15:52:51;35.60;;;24.75;;
23282;SDS011;11810;51.178;3.878;2023-01-29T15:55:20;40.03;;;25.15;;
23282;SDS011;11810;51.178;3.878;2023-01-29T15:57:48;37.15;;;23.60;;
23282;SDS011;11810;51.178;3.878;2023-01-29T16:01:53;36.38;;;23.77;;
23282;SDS011;11810;51.178;3.878;2023-01-29T16:04:23;41.67;;;25.00;;
23282;SDS011;11810;51.178;3.878;2023-01-29T16:06:55;40.00;;;24.77;;
23282;SDS011;11810;51.178;3.878;2023-01-29T16:09:23;37.65;;;22.85;;
23282;SDS011;11810;51.178;3.878;2023-01-29T16:11:52;37.45;;;23.30;;
23282;SDS011;11810;51.178;3.878;2023-01-29T16:14:21;38.97;;;23.98;;
23282;SDS011;11810;51.178;3.878;2023-01-29T16:18:03;40.42;;;27.98;;
23282;SDS011;11810;51.178;3.878;2023-01-29T16:20:45;39.15;;;25.17;;
23282;SDS011;11810;51.178;3.878;2023-01-29T16:23:21;39.55;;;24.45;;
23282;SDS011;11810;51.178;3.878;2023-01-29T16:28:03;41.05;;;26.63;;
23282;SDS011;11810;51.178;3.878;2023-01-29T16:30:31;40.60;;;24.05;;
23282;SDS011;11810;51.178;3.878;2023-01-29T16:33:01;36.42;;;24.67;;
23282;SDS011;11810;51.178;3.878;2023-01-29T16:35:29;40.03;;;24.35;;
23282;SDS011;11810;51.178;3.878;2023-01-29T16:37:58;41.65;;;25.38;;
23282;SDS011;11810;51.178;3.878;2023-01-29T16:40:31;35.92;;;22.73;;
23282;SDS011;11810;51.178;3.878;2023-01-29T16:48:58;42.65;;;24.17;;
23282;SDS011;11810;51.178;3.878;2023-01-29T16:51:35;36.83;;;23.20;;
23282;SDS011;11810;51.178;3.878;2023-01-29T16:54:06;49.28;;;27.73;;
23282;SDS011;11810;51.178;3.878;2023-01-29T16:56:37;60.38;;;34.25;;
23282;SDS011;11810;51.178;3.878;2023-01-29T16:59:04;44.85;;;27.75;;
23282;SDS011;11810;51.178;3.878;2023-01-29T17:01:31;40.28;;;25.17;;
23282;SDS011;11810;51.178;3.878;2023-01-29T17:04:09;41.03;;;24.75;;
23282;SDS011;11810;51.178;3.878;2023-01-29T17:06:42;37.25;;;23.55;;
23282;SDS011;11810;51.178;3.878;2023-01-29T17:09:23;38.85;;;25.42;;
23282;SDS011;11810;51.178;3.878;2023-01-29T17:11:57;39.20;;;23.70;;
23282;SDS011;11810;51.178;3.878;2023-01-29T17:14:25;40.30;;;24.75;;
23282;SDS011;11810;51.178;3.878;2023-01-29T17:17:01;40.03;;;24.35;;
23282;SDS011;11810;51.178;3.878;2023-01-29T17:19:29;37.22;;;23.35;;
23282;SDS011;11810;51.178;3.878;2023-01-29T17:21:56;38.85;;;24.85;;
23282;SDS011;11810;51.178;3.878;2023-01-29T17:24:23;42.53;;;23.90;;
23282;SDS011;11810;51.178;3.878;2023-01-29T17:26:49;38.75;;;24.02;;
23282;SDS011;11810;51.178;3.878;2023-01-29T17:29:16;40.90;;;24.48;;
23282;SDS011;11810;51.178;3.878;2023-01-29T17:31:44;40.92;;;24.63;;
23282;SDS011;11810;51.178;3.878;2023-01-29T17:34:13;37.38;;;23.70;;
23282;SDS011;11810;51.178;3.878;2023-01-29T17:36:40;45.35;;;25.65;;
23282;SDS011;11810;51.178;3.878;2023-01-29T17:41:44;40.22;;;25.33;;
23282;SDS011;11810;51.178;3.878;2023-01-29T17:45:14;43.70;;;24.23;;
23282;SDS011;11810;51.178;3.878;2023-01-29T17:47:40;42.47;;;25.95;;
23282;SDS011;11810;51.178;3.878;2023-01-29T17:50:14;41.00;;;25.33;;
23282;SDS011;11810;51.178;3.878;2023-01-29T17:52:52;40.40;;;24.88;;
23282;SDS011;11810;51.178;3.878;2023-01-29T17:55:18;46.47;;;27.15;;
23282;SDS011;11810;51.178;3.878;2023-01-29T17:59:15;41.00;;;26.25;;
23282;SDS011;11810;51.178;3.878;2023-01-29T18:01:46;41.67;;;26.33;;